Time;durP1;ratioP1;P1;durP2;ratioP2;P2;SDS_P1;SDS_P2;PMS_P1;PMS_P2;Temp;Humidity;BMP_temperature;BMP_pressure;BME280_temperature;BME280_humidity;BME280_pressure;Samples;Min_cycle;Max_cycle;Signal;HPM_P1;HPM_P2
2023/10/20 00:01:12;;;;;;;;;;;16.00;99.90;;;;;;2620136;54;19946;-75
2023/10/20 00:03:44;;;;;;;;;;;15.90;99.90;;;;;;2617776;47;19964;-75
2023/10/20 00:06:14;;;;;;;;;;;15.90;99.90;;;;;;2620696;39;20354;-75
2023/10/20 00:08:44;;;;;;;;;;;16.00;99.90;;;;;;2618907;39;20448;-75
2023/10/20 00:11:14;;;;;;;;;;;15.80;99.90;;;;;;2619109;47;19953;-75
2023/10/20 00:13:44;;;;;;;;;;;16.00;99.90;;;;;;2616896;54;20000;-75
2023/10/20 00:16:14;;;;;;;;;;;15.90;99.90;;;;;;2617715;54;19943;-75
2023/10/20 00:18:46;;;;;;;;;;;16.00;99.90;;;;;;2616717;54;19951;-75
2023/10/20 00:21:16;;;;;;;;;;;16.00;99.90;;;;;;2617832;47;20456;-75
2023/10/20 00:23:46;;;;;;;;;;;16.00;99.90;;;;;;2618225;47;19953;-75
2023/10/20 00:26:16;;;;;;;;;;;16.00;99.90;;;;;;2618077;54;19957;-74
2023/10/20 00:28:45;;;;;;;;;;;16.00;99.90;;;;;;2617955;54;19963;-75
2023/10/20 00:31:16;;;;;;;;;;;16.00;99.90;;;;;;2618997;39;20349;-75
2023/10/20 00:33:50;;;;;;;;;;;16.00;99.90;;;;;;2618618;47;19958;-75
2023/10/20 00:36:20;;;;;;;;;;;16.00;99.90;;;;;;2622156;39;20345;-75
2023/10/20 00:38:49;;;;;;;;;;;16.00;99.90;;;;;;2621168;47;19947;-75
2023/10/20 00:41:19;;;;;;;;;;;16.00;99.90;;;;;;2620983;54;19947;-75
2023/10/20 00:43:49;;;;;;;;;;;16.00;99.90;;;;;;2619555;54;20849;-74
2023/10/20 00:46:18;;;;;;;;;;;16.00;99.90;;;;;;2620216;47;19939;-74
2023/10/20 00:48:50;;;;;;;;;;;16.00;99.90;;;;;;2620829;39;20349;-76
2023/10/20 00:51:21;;;;;;;;;;;16.00;99.90;;;;;;2617948;47;19954;-74
2023/10/20 00:53:50;;;;;;;;;;;15.90;99.90;;;;;;2617135;47;19939;-74
2023/10/20 00:56:21;;;;;;;;;;;15.70;99.90;;;;;;2616282;47;19950;-74
2023/10/20 00:58:50;;;;;;;;;;;15.90;99.90;;;;;;2616191;39;20667;-74
2023/10/20 01:01:20;;;;;;;;;;;15.90;99.90;;;;;;2616384;54;19954;-75
2023/10/20 01:03:53;;;;;;;;;;;15.90;99.90;;;;;;2616500;54;19958;-74
2023/10/20 01:06:23;;;;;;;;;;;15.80;99.90;;;;;;2616764;54;20470;-74
2023/10/20 01:08:56;;;;;;;;;;;15.80;99.90;;;;;;2617325;54;19946;-74
2023/10/20 01:11:26;;;;;;;;;;;15.80;99.90;;;;;;2617067;47;20040;-74
2023/10/20 01:13:56;;;;;;;;;;;15.90;99.90;;;;;;2615411;54;20025;-75
2023/10/20 01:16:26;;;;;;;;;;;15.90;99.90;;;;;;2617245;47;19954;-74
2023/10/20 01:19:01;;;;;;;;;;;15.80;99.90;;;;;;2618508;47;19946;-75
2023/10/20 01:21:31;;;;;;;;;;;15.80;99.90;;;;;;2617598;54;19946;-74
2023/10/20 01:24:04;;;;;;;;;;;15.80;99.90;;;;;;2616883;54;19946;-75
2023/10/20 01:26:34;;;;;;;;;;;15.80;99.90;;;;;;2617338;54;19953;-75
2023/10/20 01:29:09;;;;;;;;;;;15.80;99.90;;;;;;2616427;54;19966;-74
2023/10/20 01:31:39;;;;;;;;;;;15.80;99.90;;;;;;2616647;47;19953;-74
2023/10/20 01:34:09;;;;;;;;;;;15.80;99.90;;;;;;2615782;54;19946;-74
2023/10/20 01:36:39;;;;;;;;;;;15.80;99.90;;;;;;2616543;54;19946;-74
2023/10/20 01:39:11;;;;;;;;;;;15.80;99.90;;;;;;2615839;54;19951;-75
2023/10/20 01:41:41;;;;;;;;;;;15.80;99.90;;;;;;2617456;39;20381;-74
2023/10/20 01:44:11;;;;;;;;;;;15.80;99.90;;;;;;2616738;54;19962;-74
2023/10/20 01:46:48;;;;;;;;;;;15.80;99.90;;;;;;2616156;47;20052;-74
2023/10/20 01:49:18;;;;;;;;;;;15.80;99.90;;;;;;2617593;39;20372;-74
2023/10/20 01:51:48;;;;;;;;;;;15.80;99.90;;;;;;2619923;39;20362;-75
2023/10/20 01:54:20;;;;;;;;;;;15.80;99.90;;;;;;2620027;47;19946;-74
2023/10/20 01:56:49;;;;;;;;;;;15.70;99.90;;;;;;2618846;47;19946;-75
2023/10/20 01:59:19;;;;;;;;;;;15.70;99.90;;;;;;2618756;47;20449;-75
2023/10/20 02:01:49;;;;;;;;;;;15.70;99.90;;;;;;2619385;54;20033;-75
2023/10/20 02:04:18;;;;;;;;;;;15.70;99.90;;;;;;2618286;47;19950;-74
2023/10/20 02:06:48;;;;;;;;;;;15.70;99.90;;;;;;2618136;47;19951;-75
2023/10/20 02:09:20;;;;;;;;;;;15.70;99.90;;;;;;2617987;47;19938;-75
2023/10/20 02:11:50;;;;;;;;;;;15.70;99.90;;;;;;2617532;54;19939;-74
2023/10/20 02:14:19;;;;;;;;;;;15.70;99.90;;;;;;2616603;54;20472;-75
2023/10/20 02:16:49;;;;;;;;;;;15.70;99.90;;;;;;2617598;47;19946;-74
2023/10/20 02:19:19;;;;;;;;;;;15.70;99.90;;;;;;2617681;47;19991;-74
2023/10/20 02:21:51;;;;;;;;;;;15.60;99.90;;;;;;2617242;47;19946;-75
2023/10/20 02:24:23;;;;;;;;;;;15.60;99.90;;;;;;2616323;54;19952;-75
2023/10/20 02:26:53;;;;;;;;;;;15.60;99.90;;;;;;2617636;54;19947;-77
2023/10/20 02:29:22;;;;;;;;;;;15.60;99.90;;;;;;2617835;47;20441;-76
2023/10/20 02:31:52;;;;;;;;;;;15.60;99.90;;;;;;2618242;54;19945;-76
2023/10/20 02:34:22;;;;;;;;;;;15.60;99.90;;;;;;2617937;39;20440;-76
2023/10/20 02:36:53;;;;;;;;;;;15.60;99.90;;;;;;2619776;47;20029;-76
2023/10/20 02:39:26;;;;;;;;;;;15.60;99.90;;;;;;2621128;47;20026;-76
2023/10/20 02:41:56;;;;;;;;;;;15.60;99.90;;;;;;2621316;54;20089;-76
2023/10/20 02:44:27;;;;;;;;;;;15.60;99.90;;;;;;2618517;54;19954;-76
2023/10/20 02:46:57;;;;;;;;;;;15.60;99.90;;;;;;2618814;47;19953;-76
2023/10/20 02:49:27;;;;;;;;;;;15.60;99.90;;;;;;2618588;47;19939;-75
2023/10/20 02:51:57;;;;;;;;;;;15.60;99.90;;;;;;2618592;46;19945;-76
2023/10/20 02:54:29;;;;;;;;;;;15.60;99.90;;;;;;2618374;54;19947;-75
2023/10/20 02:56:59;;;;;;;;;;;15.60;99.90;;;;;;2618261;47;20449;-76
2023/10/20 02:59:28;;;;;;;;;;;15.60;99.90;;;;;;2618645;47;19947;-75
2023/10/20 03:01:58;;;;;;;;;;;16.00;99.90;;;;;;2618432;47;19951;-75
2023/10/20 03:04:29;;;;;;;;;;;15.50;99.90;;;;;;2617220;47;19952;-76
2023/10/20 03:06:59;;;;;;;;;;;15.50;99.90;;;;;;2618449;54;19947;-75
2023/10/20 03:09:31;;;;;;;;;;;15.50;99.90;;;;;;2618517;47;21077;-75
2023/10/20 03:12:01;;;;;;;;;;;15.50;99.90;;;;;;2618782;54;19939;-76
2023/10/20 03:14:33;;;;;;;;;;;15.50;99.90;;;;;;2617922;54;19945;-75
2023/10/20 03:17:03;;;;;;;;;;;15.50;99.90;;;;;;2618916;47;19955;-76
2023/10/20 03:19:33;;;;;;;;;;;15.50;99.90;;;;;;2617288;47;19938;-76
2023/10/20 03:22:03;;;;;;;;;;;15.50;99.90;;;;;;2618599;47;20048;-75
2023/10/20 03:24:36;;;;;;;;;;;15.50;99.90;;;;;;2617842;48;19947;-75
2023/10/20 03:27:05;;;;;;;;;;;15.50;99.90;;;;;;2618861;46;19962;-76
2023/10/20 03:29:35;;;;;;;;;;;15.50;99.90;;;;;;2618170;47;19957;-76
2023/10/20 03:32:05;;;;;;;;;;;15.50;99.90;;;;;;2618828;47;19947;-76
2023/10/20 03:34:35;;;;;;;;;;;15.40;99.90;;;;;;2617606;47;20042;-75
2023/10/20 03:37:05;;;;;;;;;;;15.40;99.90;;;;;;2618658;47;19946;-76
2023/10/20 03:39:37;;;;;;;;;;;15.30;99.90;;;;;;2618239;47;19978;-75
2023/10/20 03:42:11;;;;;;;;;;;15.40;99.90;;;;;;2618640;39;20350;-76
2023/10/20 03:44:42;;;;;;;;;;;15.30;99.90;;;;;;2617877;54;19946;-76
2023/10/20 03:47:13;;;;;;;;;;;15.40;99.90;;;;;;2618434;49;20002;-76
2023/10/20 03:49:43;;;;;;;;;;;15.30;99.90;;;;;;2618384;46;19955;-76
2023/10/20 03:52:14;;;;;;;;;;;15.30;99.90;;;;;;2618693;47;19950;-75
2023/10/20 03:54:47;;;;;;;;;;;15.30;99.90;;;;;;2618077;47;19942;-75
2023/10/20 03:57:17;;;;;;;;;;;15.30;99.90;;;;;;2618625;54;19947;-74
2023/10/20 03:59:48;;;;;;;;;;;15.30;99.90;;;;;;2618549;46;19946;-76
2023/10/20 04:02:18;;;;;;;;;;;15.30;99.90;;;;;;2619182;47;19947;-76
2023/10/20 04:04:47;;;;;;;;;;;15.30;99.90;;;;;;2617905;54;19953;-76
2023/10/20 04:07:17;;;;;;;;;;;15.20;99.90;;;;;;2619299;47;20009;-75
2023/10/20 04:09:49;;;;;;;;;;;15.20;99.90;;;;;;2626251;46;20046;-76
2023/10/20 04:12:19;;;;;;;;;;;15.10;99.90;;;;;;2621371;54;19946;-75
2023/10/20 04:14:48;;;;;;;;;;;15.10;99.90;;;;;;2618673;47;19946;-76
2023/10/20 14:34:11;;;;;;;;;;;16.80;99.90;;;;;;2620279;54;19953;-79
2023/10/20 14:36:41;;;;;;;;;;;16.70;99.90;;;;;;2623648;54;19969;-83
2023/10/20 14:39:11;;;;;;;;;;;16.70;99.90;;;;;;2624391;54;19970;-78
2023/10/20 14:41:41;;;;;;;;;;;16.80;99.90;;;;;;2623090;46;19939;-73
2023/10/20 14:44:10;;;;;;;;;;;16.80;99.90;;;;;;2627339;39;20378;-77
2023/10/20 14:46:40;;;;;;;;;;;16.70;99.90;;;;;;2623677;54;19998;-78
2023/10/20 14:49:13;;;;;;;;;;;16.70;99.90;;;;;;2624244;47;20473;-81
2023/10/20 14:51:43;;;;;;;;;;;16.70;99.90;;;;;;2625917;47;20422;-80
2023/10/20 14:54:13;;;;;;;;;;;16.70;99.90;;;;;;2628457;47;19998;-79
2023/10/20 14:56:42;;;;;;;;;;;16.60;99.90;;;;;;2627623;47;19975;-80
2023/10/20 14:59:12;;;;;;;;;;;16.60;99.90;;;;;;2624766;47;19973;-79
2023/10/20 15:01:42;;;;;;;;;;;16.60;99.90;;;;;;2622233;47;19945;-78
2023/10/20 15:04:14;;;;;;;;;;;16.60;99.90;;;;;;2620501;47;19942;-78
2023/10/20 15:06:58;;;;;;;;;;;16.60;99.90;;;;;;2621639;47;19955;-78
2023/10/20 15:09:28;;;;;;;;;;;16.60;99.90;;;;;;2620591;47;19947;-78
2023/10/20 15:11:58;;;;;;;;;;;16.60;99.90;;;;;;2620187;47;19947;-77
2023/10/20 15:14:28;;;;;;;;;;;16.50;99.90;;;;;;2619660;47;19991;-77
2023/10/20 15:16:58;;;;;;;;;;;16.60;99.90;;;;;;2627218;47;19942;-76
2023/10/20 15:19:31;;;;;;;;;;;16.50;99.90;;;;;;2624652;47;20042;-78
2023/10/20 15:22:03;;;;;;;;;;;16.50;99.90;;;;;;2623361;54;19938;-77
2023/10/20 15:24:33;;;;;;;;;;;16.50;99.90;;;;;;2623973;54;19981;-79
2023/10/20 15:27:03;;;;;;;;;;;16.60;99.90;;;;;;2622725;47;19946;-78
2023/10/20 15:29:33;;;;;;;;;;;16.60;99.90;;;;;;2623562;54;19972;-79
2023/10/20 15:32:03;;;;;;;;;;;16.70;99.90;;;;;;2621688;54;20438;-79
2023/10/20 15:34:36;;;;;;;;;;;16.80;99.90;;;;;;2621938;47;19951;-78
2023/10/20 15:37:05;;;;;;;;;;;15.70;99.90;;;;;;2622349;54;19953;-79
2023/10/20 15:39:35;;;;;;;;;;;17.00;99.90;;;;;;2624022;54;20376;-79
2023/10/20 15:42:21;;;;;;;;;;;17.10;99.90;;;;;;2620456;47;19982;-77
2023/10/20 15:44:50;;;;;;;;;;;17.10;99.90;;;;;;2619671;47;19952;-74
2023/10/20 15:47:20;;;;;;;;;;;17.00;99.90;;;;;;2621983;47;19953;-78
2023/10/20 15:49:55;;;;;;;;;;;17.00;99.90;;;;;;2619682;47;19946;-77
2023/10/20 15:52:25;;;;;;;;;;;16.90;99.90;;;;;;2619738;54;19967;-77
2023/10/20 15:54:56;;;;;;;;;;;16.80;99.90;;;;;;2618958;47;19958;-77
2023/10/20 15:57:25;;;;;;;;;;;16.80;99.90;;;;;;2620164;54;20441;-78
2023/10/20 15:59:57;;;;;;;;;;;16.70;99.90;;;;;;2620221;47;20446;-78
2023/10/20 16:02:26;;;;;;;;;;;16.70;99.90;;;;;;2620990;39;20373;-80
2023/10/20 16:04:59;;;;;;;;;;;16.70;99.90;;;;;;2620954;47;19966;-80
2023/10/20 16:07:30;;;;;;;;;;;16.60;99.90;;;;;;2624010;47;19950;-79
2023/10/20 16:10:00;;;;;;;;;;;16.60;99.90;;;;;;2623822;39;20326;-78
2023/10/20 16:12:30;;;;;;;;;;;16.50;99.90;;;;;;2622940;47;19958;-78
2023/10/20 16:14:59;;;;;;;;;;;16.50;99.90;;;;;;2620803;47;20002;-76
2023/10/20 16:17:29;;;;;;;;;;;16.50;99.90;;;;;;2621212;54;19938;-77
2023/10/20 16:20:03;;;;;;;;;;;16.40;99.90;;;;;;2619928;47;19945;-77
2023/10/20 16:22:33;;;;;;;;;;;16.40;99.90;;;;;;2622033;47;19947;-78
2023/10/20 16:25:03;;;;;;;;;;;16.40;99.90;;;;;;2629225;39;20406;-78
2023/10/20 16:27:33;;;;;;;;;;;16.30;99.90;;;;;;2626810;47;19939;-77
2023/10/20 16:30:05;;;;;;;;;;;16.30;99.90;;;;;;2624457;47;19987;-77
2023/10/20 16:32:36;;;;;;;;;;;16.20;99.90;;;;;;2625372;47;20357;-78
2023/10/20 16:35:09;;;;;;;;;;;16.20;99.90;;;;;;2609329;47;20016;-75
2023/10/20 16:37:39;;;;;;;;;;;16.20;99.90;;;;;;2607798;47;19950;-76
2023/10/20 16:40:09;;;;;;;;;;;16.10;99.90;;;;;;2606114;47;19966;-76
2023/10/20 16:42:39;;;;;;;;;;;16.10;99.90;;;;;;2607253;47;19950;-76
2023/10/20 16:45:10;;;;;;;;;;;16.10;99.90;;;;;;2606059;47;20842;-76
2023/10/20 16:47:40;;;;;;;;;;;16.00;99.90;;;;;;2607789;47;19995;-76
2023/10/20 16:50:12;;;;;;;;;;;16.00;99.90;;;;;;2604540;47;19950;-78
2023/10/20 16:52:42;;;;;;;;;;;15.90;99.90;;;;;;2611577;47;19950;-79
2023/10/20 16:55:12;;;;;;;;;;;15.90;99.90;;;;;;2612607;47;19951;-78
2023/10/20 16:57:42;;;;;;;;;;;15.90;99.90;;;;;;2610733;47;20036;-80
2023/10/20 17:00:12;;;;;;;;;;;15.90;99.90;;;;;;2611321;54;19995;-78
2023/10/20 17:02:42;;;;;;;;;;;15.80;99.90;;;;;;2608496;47;19974;-78
2023/10/20 17:05:15;;;;;;;;;;;15.80;99.90;;;;;;2608553;54;19946;-77
2023/10/20 17:07:45;;;;;;;;;;;15.80;99.90;;;;;;2607000;54;20934;-76
2023/10/20 17:10:15;;;;;;;;;;;15.70;99.90;;;;;;2608614;54;19947;-80
2023/10/20 17:12:46;;;;;;;;;;;15.70;99.90;;;;;;2608607;47;20071;-77
2023/10/20 17:15:16;;;;;;;;;;;15.60;99.90;;;;;;2606410;47;19946;-78
2023/10/20 17:17:46;;;;;;;;;;;15.60;99.90;;;;;;2610546;39;20624;-80
2023/10/20 17:20:18;;;;;;;;;;;15.60;99.90;;;;;;2608372;47;19960;-77
2023/10/20 17:22:48;;;;;;;;;;;15.50;99.90;;;;;;2608624;47;19946;-77
2023/10/20 17:25:18;;;;;;;;;;;15.50;99.90;;;;;;2609134;48;20006;-77
2023/10/20 17:27:48;;;;;;;;;;;15.40;99.90;;;;;;2607705;47;19957;-76
2023/10/20 17:30:18;;;;;;;;;;;15.40;99.90;;;;;;2610994;47;20037;-77
2023/10/20 17:32:47;;;;;;;;;;;15.30;99.90;;;;;;2610084;46;19958;-77
2023/10/20 17:35:21;;;;;;;;;;;15.30;99.90;;;;;;2610104;54;20015;-78
2023/10/20 17:37:53;;;;;;;;;;;15.20;99.90;;;;;;2613776;39;20421;-79
2023/10/20 17:40:23;;;;;;;;;;;15.00;99.90;;;;;;2615690;47;19994;-80
2023/10/20 17:42:53;;;;;;;;;;;15.20;99.90;;;;;;2616889;47;19947;-80
2023/10/20 17:45:26;;;;;;;;;;;15.20;99.90;;;;;;2616599;39;20434;-80
2023/10/20 17:47:56;;;;;;;;;;;14.50;99.90;;;;;;2618637;54;19950;-81
2023/10/20 17:50:29;;;;;;;;;;;15.10;99.90;;;;;;2617630;47;19962;-80
2023/10/20 17:52:59;;;;;;;;;;;15.10;99.90;;;;;;2619101;47;20596;-81
2023/10/20 17:55:28;;;;;;;;;;;15.00;99.90;;;;;;2619063;39;20847;-79
2023/10/20 17:57:58;;;;;;;;;;;15.00;99.90;;;;;;2612436;47;20000;-79
2023/10/20 18:00:28;;;;;;;;;;;14.90;99.90;;;;;;2614964;47;20777;-83
2023/10/20 18:02:57;;;;;;;;;;;14.90;99.90;;;;;;2616520;47;19950;-75
2023/10/20 18:05:32;;;;;;;;;;;14.80;99.90;;;;;;2611330;46;19957;-76
2023/10/20 18:08:02;;;;;;;;;;;14.80;99.90;;;;;;2607783;47;19950;-79
2023/10/20 18:10:32;;;;;;;;;;;14.70;99.90;;;;;;2606872;54;19994;-76
2023/10/20 18:13:02;;;;;;;;;;;14.70;99.90;;;;;;2605977;47;19957;-76
2023/10/20 18:15:31;;;;;;;;;;;13.90;99.90;;;;;;2606772;54;19953;-77
2023/10/20 18:18:01;;;;;;;;;;;14.70;99.90;;;;;;2606584;54;20755;-77
2023/10/20 18:20:33;;;;;;;;;;;15.80;99.90;;;;;;2608711;54;19946;-80
2023/10/20 18:23:03;;;;;;;;;;;14.60;99.90;;;;;;2606874;54;19964;-77
2023/10/20 18:25:33;;;;;;;;;;;14.60;99.90;;;;;;2612598;54;19946;-77
2023/10/20 18:28:03;;;;;;;;;;;14.60;99.90;;;;;;2611546;53;19962;-80
2023/10/20 18:30:33;;;;;;;;;;;14.60;99.90;;;;;;2610752;47;19950;-79
2023/10/20 18:33:02;;;;;;;;;;;14.60;99.90;;;;;;2611442;53;19954;-80
2023/10/20 18:35:35;;;;;;;;;;;14.60;99.90;;;;;;2611422;54;19947;-79
2023/10/20 18:38:05;;;;;;;;;;;14.60;99.90;;;;;;2614183;54;19953;-78
2023/10/20 18:40:35;;;;;;;;;;;14.60;99.90;;;;;;2612564;54;19953;-78
2023/10/20 18:43:05;;;;;;;;;;;14.60;99.90;;;;;;2616337;54;19950;-81
2023/10/20 18:45:35;;;;;;;;;;;14.70;99.90;;;;;;2615106;39;20720;-78
2023/10/20 18:48:05;;;;;;;;;;;14.70;99.90;;;;;;2612218;47;19950;-78
2023/10/20 18:50:38;;;;;;;;;;;14.80;99.90;;;;;;2609156;47;20006;-79
2023/10/20 18:53:08;;;;;;;;;;;14.70;99.90;;;;;;2613910;47;19946;-80
2023/10/20 18:55:38;;;;;;;;;;;14.70;99.90;;;;;;2614685;54;20440;-79
2023/10/20 18:58:07;;;;;;;;;;;14.70;99.90;;;;;;2611194;47;19953;-77
2023/10/20 19:00:38;;;;;;;;;;;14.70;99.90;;;;;;2612098;47;20556;-80
2023/10/20 19:03:08;;;;;;;;;;;14.70;99.90;;;;;;2621624;31;20646;-80
2023/10/20 19:05:40;;;;;;;;;;;15.50;99.90;;;;;;2619558;54;19946;-80
2023/10/20 19:08:10;;;;;;;;;;;14.60;99.90;;;;;;2620056;47;19950;-82
2023/10/20 19:10:40;;;;;;;;;;;14.70;99.90;;;;;;2618790;54;19950;-82
2023/10/20 19:13:10;;;;;;;;;;;14.60;99.90;;;;;;2617143;47;19943;-79
2023/10/20 19:15:40;;;;;;;;;;;14.60;99.90;;;;;;2619894;47;19946;-80
2023/10/20 19:18:10;;;;;;;;;;;14.60;99.90;;;;;;2619996;54;19950;-79
2023/10/20 19:20:43;;;;;;;;;;;14.60;99.90;;;;;;2621498;54;20228;-76
2023/10/20 19:23:14;;;;;;;;;;;14.50;99.90;;;;;;2627498;47;19943;-80
2023/10/20 19:25:44;;;;;;;;;;;14.50;99.90;;;;;;2625246;54;19947;-77
2023/10/20 19:28:15;;;;;;;;;;;14.50;99.90;;;;;;2616892;54;19953;-76
2023/10/20 19:30:45;;;;;;;;;;;14.40;99.90;;;;;;2620678;54;19947;-80
2023/10/20 19:33:15;;;;;;;;;;;14.40;99.90;;;;;;2621697;54;19950;-73
2023/10/20 19:35:48;;;;;;;;;;;14.30;99.90;;;;;;2618381;39;20422;-75
2023/10/20 19:38:18;;;;;;;;;;;14.30;99.90;;;;;;2624293;47;19946;-81
2023/10/20 19:40:48;;;;;;;;;;;14.30;99.90;;;;;;2622934;47;20484;-76
2023/10/20 19:43:17;;;;;;;;;;;14.20;99.90;;;;;;2624734;54;20046;-77
2023/10/20 19:45:47;;;;;;;;;;;14.20;99.90;;;;;;2623361;47;19958;-77
2023/10/20 19:48:17;;;;;;;;;;;14.20;99.90;;;;;;2622152;39;20421;-75
2023/10/20 19:50:50;;;;;;;;;;;14.10;99.90;;;;;;2619518;47;20465;-76
2023/10/20 19:53:19;;;;;;;;;;;14.10;99.90;;;;;;2618325;54;19946;-75
2023/10/20 19:55:49;;;;;;;;;;;14.10;99.90;;;;;;2625126;47;19947;-78
2023/10/20 19:58:20;;;;;;;;;;;14.00;99.90;;;;;;2622310;47;20670;-77
2023/10/20 20:00:50;;;;;;;;;;;14.00;99.90;;;;;;2618361;46;19939;-78
2023/10/20 20:03:20;;;;;;;;;;;14.00;99.90;;;;;;2618196;54;19987;-79
2023/10/20 20:05:53;;;;;;;;;;;13.70;99.90;;;;;;2620031;47;19947;-79
2023/10/20 20:08:23;;;;;;;;;;;14.00;99.90;;;;;;2619785;54;19950;-78
2023/10/20 20:10:53;;;;;;;;;;;14.00;99.90;;;;;;2621829;47;19950;-78
2023/10/20 20:13:22;;;;;;;;;;;14.00;99.90;;;;;;2621621;47;19950;-76
2023/10/20 20:15:52;;;;;;;;;;;14.00;99.90;;;;;;2623405;47;19950;-80
2023/10/20 20:18:22;;;;;;;;;;;13.90;99.90;;;;;;2624481;46;19950;-76
2023/10/20 20:20:54;;;;;;;;;;;13.90;99.90;;;;;;2622378;47;19946;-77
2023/10/20 20:23:27;;;;;;;;;;;13.90;99.90;;;;;;2621417;47;19953;-77
2023/10/20 20:25:57;;;;;;;;;;;13.90;99.90;;;;;;2622648;54;20021;-80
2023/10/20 20:28:27;;;;;;;;;;;13.80;99.90;;;;;;2625972;54;19998;-77
2023/10/20 20:30:57;;;;;;;;;;;13.90;99.90;;;;;;2626512;39;20631;-80
2023/10/20 20:33:27;;;;;;;;;;;13.80;99.90;;;;;;2625646;54;19962;-80
2023/10/20 20:36:00;;;;;;;;;;;13.80;99.90;;;;;;2625222;47;19939;-80
2023/10/20 20:38:30;;;;;;;;;;;13.80;99.90;;;;;;2627355;54;20512;-81
2023/10/20 20:41:00;;;;;;;;;;;13.80;99.90;;;;;;2619616;47;19947;-76
2023/10/20 20:43:30;;;;;;;;;;;13.80;99.90;;;;;;2616676;54;19982;-76
2023/10/20 20:46:00;;;;;;;;;;;13.80;99.90;;;;;;2617548;47;19938;-76
2023/10/20 20:48:31;;;;;;;;;;;13.80;99.90;;;;;;2618839;39;20499;-76
2023/10/20 20:51:03;;;;;;;;;;;13.90;99.90;;;;;;2618212;46;19954;-77
2023/10/20 20:53:33;;;;;;;;;;;13.90;99.90;;;;;;2618416;54;20491;-76
2023/10/20 20:56:03;;;;;;;;;;;13.90;99.90;;;;;;2618561;47;19999;-78
2023/10/20 20:58:33;;;;;;;;;;;13.90;99.90;;;;;;2619790;47;19974;-78
2023/10/20 21:01:09;;;;;;;;;;;13.90;99.90;;;;;;2619536;54;19938;-80
2023/10/20 21:03:40;;;;;;;;;;;13.90;99.90;;;;;;2620935;54;20033;-80
2023/10/20 21:06:15;;;;;;;;;;;13.90;99.90;;;;;;2618277;50;19953;-79
2023/10/20 21:08:46;;;;;;;;;;;13.90;99.90;;;;;;2619729;47;19963;-78
2023/10/20 21:11:16;;;;;;;;;;;13.90;99.90;;;;;;2617558;47;20104;-76
2023/10/20 21:13:46;;;;;;;;;;;13.90;99.90;;;;;;2616569;46;19968;-76
2023/10/20 21:16:16;;;;;;;;;;;13.90;99.90;;;;;;2617300;47;19947;-77
2023/10/20 21:18:45;;;;;;;;;;;13.90;99.90;;;;;;2617398;54;19939;-76
2023/10/20 21:21:18;;;;;;;;;;;14.00;99.90;;;;;;2618406;47;19954;-76
2023/10/20 21:23:47;;;;;;;;;;;13.90;99.90;;;;;;2617530;54;19948;-77
2023/10/20 21:26:17;;;;;;;;;;;13.90;99.90;;;;;;2616810;46;19969;-77
2023/10/20 21:28:47;;;;;;;;;;;13.90;99.90;;;;;;2617089;54;19947;-76
2023/10/20 21:31:17;;;;;;;;;;;13.90;99.90;;;;;;2617046;54;19938;-76
2023/10/20 21:33:46;;;;;;;;;;;14.00;99.90;;;;;;2616634;54;19945;-76
2023/10/20 21:36:19;;;;;;;;;;;14.00;99.90;;;;;;2617181;47;20449;-76
2023/10/20 21:38:48;;;;;;;;;;;14.00;99.90;;;;;;2617213;47;19947;-77
2023/10/20 21:41:18;;;;;;;;;;;14.00;99.90;;;;;;2617505;47;20434;-77
2023/10/20 21:43:48;;;;;;;;;;;14.20;99.90;;;;;;2617209;47;19939;-76
2023/10/20 21:46:17;;;;;;;;;;;14.00;99.90;;;;;;2616875;54;19947;-76
2023/10/20 21:48:48;;;;;;;;;;;14.10;99.90;;;;;;2617169;39;20357;-76
2023/10/20 21:51:21;;;;;;;;;;;14.10;99.90;;;;;;2617263;54;19950;-76
2023/10/20 21:53:50;;;;;;;;;;;14.10;99.90;;;;;;2617468;47;19943;-75
2023/10/20 21:56:20;;;;;;;;;;;14.10;99.90;;;;;;2617317;39;20334;-76
2023/10/20 21:58:50;;;;;;;;;;;14.10;99.90;;;;;;2616864;47;19953;-76
2023/10/20 22:01:19;;;;;;;;;;;14.10;99.90;;;;;;2618233;54;20042;-77
2023/10/20 22:03:50;;;;;;;;;;;14.10;99.90;;;;;;2617885;47;19952;-76
2023/10/20 22:06:23;;;;;;;;;;;14.10;99.90;;;;;;2618391;47;19946;-75
2023/10/20 22:08:53;;;;;;;;;;;14.20;99.90;;;;;;2620394;54;19954;-76
2023/10/20 22:11:23;;;;;;;;;;;14.10;99.90;;;;;;2617652;47;20175;-76
2023/10/20 22:13:53;;;;;;;;;;;14.20;99.90;;;;;;2616115;47;19946;-77
2023/10/20 22:16:22;;;;;;;;;;;14.20;99.90;;;;;;2618260;54;19938;-76
2023/10/20 22:18:52;;;;;;;;;;;14.20;99.90;;;;;;2618173;39;20322;-76
2023/10/20 22:21:27;;;;;;;;;;;14.20;99.90;;;;;;2618116;47;19951;-76
2023/10/20 22:23:57;;;;;;;;;;;14.20;99.90;;;;;;2617437;47;19939;-76
2023/10/20 22:26:26;;;;;;;;;;;14.20;99.90;;;;;;2617252;47;19945;-75
2023/10/20 22:28:56;;;;;;;;;;;14.20;99.90;;;;;;2617112;54;19954;-76
2023/10/20 22:31:26;;;;;;;;;;;14.30;99.90;;;;;;2618458;39;20381;-77
2023/10/20 22:33:57;;;;;;;;;;;14.30;99.90;;;;;;2611780;54;19958;-74
2023/10/20 22:38:57;;;;;;;;;;;14.30;99.90;;;;;;2608534;54;20057;-75
2023/10/20 22:41:27;;;;;;;;;;;14.30;99.90;;;;;;2607451;54;19947;-76
2023/10/20 22:43:57;;;;;;;;;;;14.30;99.90;;;;;;2608071;39;20338;-77
2023/10/20 22:46:26;;;;;;;;;;;14.30;99.90;;;;;;2607371;47;21100;-76
2023/10/20 22:48:56;;;;;;;;;;;14.40;99.90;;;;;;2608167;54;20453;-77
2023/10/20 22:51:26;;;;;;;;;;;14.40;99.90;;;;;;2608783;52;19954;-76
2023/10/20 22:53:58;;;;;;;;;;;14.40;99.90;;;;;;2607521;47;19946;-77
2023/10/20 22:56:30;;;;;;;;;;;14.40;99.90;;;;;;2607630;54;19946;-77
2023/10/20 22:59:00;;;;;;;;;;;14.40;99.90;;;;;;2607907;47;19946;-75
2023/10/20 23:01:30;;;;;;;;;;;14.30;99.90;;;;;;2607942;47;19946;-76
2023/10/20 23:04:00;;;;;;;;;;;14.30;99.90;;;;;;2607140;54;20555;-77
2023/10/20 23:06:29;;;;;;;;;;;14.30;99.90;;;;;;2607237;47;19953;-76
2023/10/20 23:09:02;;;;;;;;;;;14.40;99.90;;;;;;2607760;54;20029;-80
2023/10/20 23:11:32;;;;;;;;;;;14.30;99.90;;;;;;2607945;39;20393;-78
2023/10/20 23:14:03;;;;;;;;;;;14.30;99.90;;;;;;2607091;47;19957;-76
2023/10/20 23:16:32;;;;;;;;;;;14.30;99.90;;;;;;2606753;47;19963;-78
2023/10/20 23:19:03;;;;;;;;;;;14.30;99.90;;;;;;2607769;47;19946;-75
2023/10/20 23:21:33;;;;;;;;;;;14.30;99.90;;;;;;2617888;47;19950;-75
2023/10/20 23:24:05;;;;;;;;;;;14.30;99.90;;;;;;2616894;47;20023;-75
2023/10/20 23:26:35;;;;;;;;;;;14.40;99.90;;;;;;2616696;47;19958;-78
2023/10/20 23:29:05;;;;;;;;;;;14.40;99.90;;;;;;2617117;47;19938;-76
2023/10/20 23:31:34;;;;;;;;;;;14.40;99.90;;;;;;2618031;54;19947;-76
2023/10/20 23:34:04;;;;;;;;;;;14.40;99.90;;;;;;2615625;47;19950;-77
2023/10/20 23:36:34;;;;;;;;;;;14.40;99.90;;;;;;2616826;46;20445;-75
2023/10/20 23:39:06;;;;;;;;;;;14.40;99.90;;;;;;2617439;47;20454;-75
2023/10/20 23:41:36;;;;;;;;;;;14.40;99.90;;;;;;2617051;47;19977;-75
2023/10/20 23:44:05;;;;;;;;;;;14.40;99.90;;;;;;2616566;47;20514;-76
2023/10/20 23:46:35;;;;;;;;;;;14.40;99.90;;;;;;2617588;46;19974;-76
2023/10/20 23:49:05;;;;;;;;;;;14.40;99.90;;;;;;2617895;47;19958;-77
2023/10/20 23:51:34;;;;;;;;;;;14.50;99.90;;;;;;2618477;47;19939;-75
2023/10/20 23:54:07;;;;;;;;;;;14.50;99.90;;;;;;2616954;54;19939;-76
2023/10/20 23:56:36;;;;;;;;;;;14.50;99.90;;;;;;2617840;39;20341;-76
2023/10/20 23:59:06;;;;;;;;;;;14.50;99.90;;;;;;2618122;47;19946;-76
